Time;durP1;ratioP1;P1;durP2;ratioP2;P2;SDS_P1;SDS_P2;PMS_P1;PMS_P2;Temp;Humidity;BMP_temperature;BMP_pressure;BME280_temperature;BME280_humidity;BME280_pressure;Samples;Min_cycle;Max_cycle;Signal;HPM_P1;HPM_P2
2022/01/21 00:01:00;;;;;;;9.98;1.30;;;;;;;;;;5083324;27;20084;-84
2022/01/21 00:03:26;;;;;;;11.02;1.48;;;;;;;;;;5080045;27;20039;-84
2022/01/21 00:05:53;;;;;;;12.07;2.03;;;;;;;;;;5096164;27;20074;-84
2022/01/21 00:08:19;;;;;;;11.25;1.88;;;;;;;;;;5087692;27;20122;-83
2022/01/21 00:10:45;;;;;;;11.38;1.33;;;;;;;;;;5081702;27;20884;-84
2022/01/21 00:13:20;;;;;;;16.02;1.70;;;;;;;;;;5095898;28;20087;-84
2022/01/21 00:15:46;;;;;;;8.88;1.40;;;;;;;;;;5099626;27;20047;-84
2022/01/21 00:18:13;;;;;;;26.23;2.10;;;;;;;;;;5092901;28;20040;-84
2022/01/21 00:31:38;;;;;;;12.55;1.98;;;;;;;;;;5099182;27;20590;-83
2022/01/21 00:34:05;;;;;;;9.88;0.98;;;;;;;;;;5103065;27;20039;-83
2022/01/21 00:36:32;;;;;;;6.13;1.10;;;;;;;;;;5103080;27;20043;-83
2022/01/21 00:38:59;;;;;;;9.63;1.05;;;;;;;;;;5076437;27;20043;-83
2022/01/21 00:41:29;;;;;;;8.32;1.02;;;;;;;;;;5101410;27;20464;-83
2022/01/21 00:43:55;;;;;;;4.97;0.90;;;;;;;;;;5084485;27;20054;-83
2022/01/21 00:46:22;;;;;;;11.73;1.10;;;;;;;;;;5100367;27;20043;-83
2022/01/21 00:48:48;;;;;;;8.65;1.23;;;;;;;;;;5100820;27;20047;-83
2022/01/21 00:51:14;;;;;;;11.88;1.85;;;;;;;;;;5083725;27;20054;-83
2022/01/21 00:53:40;;;;;;;11.48;1.23;;;;;;;;;;5093791;27;20081;-83
2022/01/21 00:56:07;;;;;;;9.70;1.33;;;;;;;;;;5102442;27;20050;-84
2022/01/21 00:58:33;;;;;;;20.35;2.33;;;;;;;;;;5100405;27;20043;-85
2022/01/21 01:00:59;;;;;;;17.00;2.10;;;;;;;;;;5075755;27;20110;-84
2022/01/21 01:03:25;;;;;;;21.15;2.22;;;;;;;;;;5079552;27;20038;-86
2022/01/21 01:05:52;;;;;;;13.18;2.88;;;;;;;;;;5081485;27;20067;-85
2022/01/21 01:08:19;;;;;;;16.63;2.75;;;3.20;46.10;;;;;;5096906;27;20066;-85
2022/01/21 01:11:14;;;;;;;19.85;2.25;;;;;;;;;;5094756;27;20039;-85
2022/01/21 01:21:54;;;;;;;14.23;1.80;;;;;;;;;;5098997;27;20039;-85
2022/01/21 01:29:50;;;;;;;21.52;2.72;;;;;;;;;;5089691;27;20284;-85
2022/01/21 01:32:16;;;;;;;15.77;1.80;;;;;;;;;;5100463;27;20039;-85
2022/01/21 01:34:42;;;;;;;10.35;1.75;;;;;;;;;;5091564;27;20591;-85
2022/01/21 01:37:17;;;;;;;12.77;1.38;;;;;;;;;;5086986;28;20047;-84
2022/01/21 01:39:46;;;;;;;8.13;0.77;;;;;;;;;;5078509;27;20044;-85
2022/01/21 01:50:27;;;;;;;19.23;1.98;;;;;;;;;;5096406;27;20047;-86
2022/01/21 01:52:54;;;;;;;12.98;1.83;;;;;;;;;;5095266;28;20540;-86
2022/01/21 01:55:20;;;;;;;14.88;2.17;;;;;;;;;;5076665;28;20154;-86
2022/01/21 01:57:46;;;;;;;10.38;1.23;;;;;;;;;;5075567;28;20417;-85
2022/01/21 02:00:12;;;;;;;15.10;2.05;;;;;;;;;;5096678;28;20050;-86
2022/01/21 02:02:39;;;;;;;12.75;1.35;;;;;;;;;;5095544;28;20355;-86
2022/01/21 02:05:05;;;;;;;9.80;1.02;;;;;;;;;;5077780;28;20161;-86
2022/01/21 02:07:31;;;;;;;8.93;1.10;;;;;;;;;;5087542;27;20807;-86
2022/01/21 02:09:57;;;;;;;8.95;1.13;;;;;;;;;;5095068;28;20051;-86
2022/01/21 02:12:23;;;;;;;14.55;2.60;;;;;;;;;;5097336;27;20043;-86
2022/01/21 02:14:52;;;;;;;7.85;0.70;;;;;;;;;;5086299;27;20035;-85
2022/01/21 02:22:43;;;;;;;11.18;1.50;;;;;;;;;;5097744;27;20071;-85
2022/01/21 02:25:18;;;;;;;16.40;2.03;;;;;;;;;;5101102;27;20500;-85
2022/01/21 02:27:53;;;;;;;14.15;1.42;;;;;;;;;;5094759;27;20047;-85
2022/01/21 02:30:21;;;;;;;11.47;2.03;;;;;;;;;;5094346;27;20078;-86
2022/01/21 02:32:48;;;;;;;13.60;1.75;;;;;;;;;;5096416;27;20324;-85
2022/01/21 02:35:15;;;;;;;18.17;1.85;;;;;;;;;;5075686;28;20065;-85
2022/01/21 02:37:41;;;;;;;10.80;1.13;;;;;;;;;;5104446;27;20457;-85
2022/01/21 02:40:08;;;;;;;8.40;1.20;;;;;;;;;;5099949;27;20099;-85
2022/01/21 02:42:35;;;;;;;6.93;1.10;;;;;;;;;;5102784;27;20075;-84
2022/01/21 02:45:02;;;;;;;9.98;1.73;;;;;;;;;;5105810;27;20035;-84
2022/01/21 02:47:28;;;;;;;12.25;1.33;;;;;;;;;;5086538;27;20078;-85
2022/01/21 02:49:54;;;;;;;11.20;1.40;;;;;;;;;;5111715;27;20071;-84
2022/01/21 02:52:24;;;;;;;11.48;1.13;;;;;;;;;;5099536;27;20039;-84
2022/01/21 02:54:50;;;;;;;11.20;1.10;;;;;;;;;;5101767;27;20100;-85
2022/01/21 02:57:16;;;;;;;8.38;1.27;;;;;;;;;;5102960;27;20408;-85
2022/01/21 02:59:43;;;;;;;13.00;1.75;;;;;;;;;;5085135;27;20043;-85
2022/01/21 03:02:09;;;;;;;17.92;1.85;;;;;;;;;;5076222;27;20035;-86
2022/01/21 03:04:45;;;;;;;9.00;1.23;;;;;;;;;;5084333;27;20491;-86
2022/01/21 03:07:11;;;;;;;12.98;2.53;;;;;;;;;;5100185;27;20050;-85
2022/01/21 03:09:37;;;;;;;15.95;2.05;;;;;;;;;;5099261;27;20039;-85
2022/01/21 03:12:04;;;;;;;14.68;2.50;;;;;;;;;;5095968;27;20051;-85
2022/01/21 03:14:30;;;;;;;18.15;1.40;;;;;;;;;;5100286;27;20404;-85
2022/01/21 03:16:57;;;;;;;21.90;3.03;;;;;;;;;;5101963;27;20043;-85
2022/01/21 03:19:23;;;;;;;9.38;1.65;;;;;;;;;;5078637;27;20423;-84
2022/01/21 03:21:49;;;;;;;14.32;1.77;;;;;;;;;;5082967;27;21469;-85
2022/01/21 03:24:16;;;;;;;8.32;1.38;;;;;;;;;;5099509;27;20035;-85
2022/01/21 03:26:42;;;;;;;9.45;1.35;;;;;;;;;;5102052;27;20034;-85
2022/01/21 03:29:08;;;;;;;13.63;1.95;;;;;;;;;;5097853;27;20103;-85
2022/01/21 03:31:34;;;;;;;15.55;2.10;;;;;;;;;;5096294;27;20035;-85
2022/01/21 03:34:01;;;;;;;9.82;1.05;;;;;;;;;;5099466;27;20154;-85
2022/01/21 03:36:28;;;;;;;11.52;1.40;;;;;;;;;;5083097;27;20069;-85
2022/01/21 03:38:55;;;;;;;15.50;1.58;;;;;;;;;;5081483;27;20611;-84
2022/01/21 03:41:21;;;;;;;10.68;1.40;;;;;;;;;;5094805;27;20041;-85
2022/01/21 03:43:50;;;;;;;12.80;1.52;;;;;;;;;;5093489;27;20385;-84
2022/01/21 03:46:16;;;;;;;13.65;1.65;;;;;;;;;;5097551;27;20031;-84
2022/01/21 03:48:47;;;;;;;20.50;2.40;;;;;;;;;;5099100;27;20046;-84
2022/01/21 03:51:13;;;;;;;9.40;1.30;;;;;;;;;;5100191;27;20520;-84
2022/01/21 03:53:39;;;;;;;12.23;1.70;;;;;;;;;;5079436;27;20179;-85
2022/01/21 03:56:05;;;;;;;16.10;1.55;;;;;;;;;;5084269;27;20043;-85
2022/01/21 03:58:31;;;;;;;16.40;1.60;;;;;;;;;;5109509;27;20039;-85
2022/01/21 04:00:58;;;;;;;9.98;1.30;;;;;;;;;;5114354;27;20038;-85
2022/01/21 04:03:25;;;;;;;17.33;1.80;;;;;;;;;;5099885;27;20035;-85
2022/01/21 04:05:52;;;;;;;11.55;1.63;;;;;;;;;;5085689;27;20031;-85
2022/01/21 04:08:18;;;;;;;14.25;2.10;;;;;;;;;;5098190;27;20515;-85
2022/01/21 04:10:48;;;;;;;16.05;2.60;;;;;;;;;;5081457;27;20522;-84
2022/01/21 04:13:16;;;;;;;12.48;1.80;;;;;;;;;;5103031;27;20495;-84
2022/01/21 04:15:43;;;;;;;14.02;1.77;;;;;;;;;;5075347;28;20047;-84
2022/01/21 04:18:10;;;;;;;13.15;1.73;;;;;;;;;;5081837;27;20537;-85
2022/01/21 04:20:37;;;;;;;10.82;1.42;;;;;;;;;;5091461;27;20040;-84
2022/01/21 04:23:04;;;;;;;10.27;1.27;;;;;;;;;;5102660;27;20178;-84
2022/01/21 04:25:30;;;;;;;13.73;1.73;;;;;;;;;;5083396;27;20435;-84
2022/01/21 04:27:56;;;;;;;14.48;2.17;;;;;;;;;;5081588;27;20108;-84
2022/01/21 04:30:22;;;;;;;16.80;2.13;;;;;;;;;;5095212;27;20552;-84
2022/01/21 04:32:48;;;;;;;9.07;2.33;;;;;;;;;;5080635;27;20081;-85
2022/01/21 04:35:15;;;;;;;10.30;1.13;;;;;;;;;;5095388;27;20535;-87
2022/01/21 04:37:49;;;;;;;4.20;0.60;;;;;;;;;;5078296;27;20135;-85
2022/01/21 04:40:17;;;;;;;2.50;0.53;;;;;;;;;;5081018;27;20042;-85
2022/01/21 04:48:13;;;;;;;8.10;0.93;;;;;;;;;;5094538;28;20146;-85
2022/01/21 04:50:51;;;;;;;6.30;0.82;;;;;;;;;;5095859;28;20470;-85
2022/01/21 04:53:17;;;;;;;5.53;0.90;;;;;;;;;;5097525;28;20070;-85
2022/01/21 04:55:44;;;;;;;15.65;1.27;;;;;;;;;;5070099;28;20039;-85
2022/01/21 04:58:10;;;;;;;8.68;1.38;;;;;;;;;;5091688;28;20050;-85
2022/01/21 05:00:36;;;;;;;16.48;1.42;;;;;;;;;;5093174;28;20469;-84
2022/01/21 05:03:02;;;;;;;14.65;2.42;;;;;;;;;;5088720;28;20528;-85
2022/01/21 05:05:29;;;;;;;17.92;2.25;;;;;;;;;;5081768;28;20059;-86
2022/01/21 05:07:58;;;;;;;13.18;1.95;;;;;;;;;;5097313;28;20046;-86
2022/01/21 05:10:27;;;;;;;16.25;1.83;;;;;;;;;;5077835;28;20051;-86
2022/01/21 05:12:53;;;;;;;10.07;1.80;;;;;;;;;;5076253;28;20082;-85
2022/01/21 05:15:28;;;;;;;20.60;3.33;;;;;;;;;;5093065;28;20043;-86
2022/01/21 05:17:54;;;;;;;17.43;1.97;;;;;;;;;;5078777;28;20035;-85
2022/01/21 05:20:20;;;;;;;19.77;1.70;;;;;;;;;;5096217;28;20523;-86
2022/01/21 05:22:46;;;;;;;15.13;2.85;;;;;;;;;;5101040;28;20067;-86
2022/01/21 05:25:17;;;;;;;13.95;1.67;;;;;;;;;;5080886;28;20496;-86
2022/01/21 05:27:47;;;;;;;13.05;1.70;;;;;;;;;;5077431;28;20052;-85
2022/01/21 05:30:15;;;;;;;15.18;1.63;;;;;;;;;;5085186;28;20044;-86
2022/01/21 05:32:41;;;;;;;12.48;1.55;;;;;;;;;;5087414;28;20044;-86
2022/01/21 05:35:08;;;;;;;13.82;1.73;;;;;;;;;;5085945;28;20059;-86
2022/01/21 05:37:35;;;;;;;11.80;2.20;;;;;;;;;;5080149;28;20491;-85
2022/01/21 05:40:02;;;;;;;16.25;1.70;;;;;;;;;;5095593;28;20027;-86
2022/01/21 05:42:28;;;;;;;15.88;2.03;;;;;;;;;;5075475;28;20048;-86
2022/01/21 05:47:20;;;;;;;15.05;1.90;;;;;;;;;;5087468;28;20067;-85
2022/01/21 05:49:47;;;;;;;13.65;1.80;;;;;;;;;;5090702;28;20048;-86
2022/01/21 05:52:18;;;;;;;15.55;1.52;;;;;;;;;;5073354;28;20044;-86
2022/01/21 05:54:45;;;;;;;15.23;1.90;;;;;;;;;;5093122;28;20527;-86
2022/01/21 05:57:13;;;;;;;12.63;1.63;;;;;;;;;;5072481;28;20078;-86
2022/01/21 05:59:40;;;;;;;14.07;1.50;;;;;;;;;;5074897;28;20091;-86
2022/01/21 06:02:07;;;;;;;14.18;1.60;;;3.60;72.80;;;;;;5069857;28;20036;-86
2022/01/21 06:04:34;;;;;;;5.32;1.02;;;;;;;;;;5094035;28;20043;-86
2022/01/21 06:07:01;;;;;;;14.35;2.13;;;;;;;;;;5090258;28;20160;-86
2022/01/21 06:09:28;;;;;;;10.73;2.28;;;;;;;;;;5074905;28;20051;-86
2022/01/21 06:11:54;;;;;;;11.70;1.58;;;;;;;;;;5095238;28;20047;-86
2022/01/21 06:14:20;;;;;;;14.52;2.17;;;;;;;;;;5073154;28;20080;-86
2022/01/21 06:16:46;;;;;;;23.63;2.30;;;;;;;;;;5076029;28;20545;-86
2022/01/21 06:19:12;;;;;;;15.50;2.05;;;;;;;;;;5081301;28;20089;-86
2022/01/21 06:21:39;;;;;;;21.13;2.30;;;;;;;;;;5090741;28;20701;-86
2022/01/21 06:24:05;;;;;;;26.20;2.13;;;;;;;;;;5096593;28;20036;-85
2022/01/21 06:26:31;;;;;;;29.08;2.55;;;;;;;;;;5074304;28;20051;-85
2022/01/21 06:28:58;;;;;;;19.48;2.10;;;;;;;;;;5090222;28;20043;-86
2022/01/21 06:31:24;;;;;;;13.73;1.85;;;;;;;;;;5079126;28;20143;-85
2022/01/21 06:33:50;;;;;;;15.40;2.13;;;;;;;;;;5076984;28;20067;-86
2022/01/21 06:36:16;;;;;;;18.13;1.98;;;;;;;;;;5077209;28;20364;-85
2022/01/21 06:38:42;;;;;;;17.08;1.90;;;;;;;;;;5090903;28;20035;-85
2022/01/21 06:41:08;;;;;;;22.83;2.60;;;;;;;;;;5089227;28;20048;-86
2022/01/21 06:43:34;;;;;;;16.90;1.50;;;;;;;;;;5092130;28;20123;-86
2022/01/21 06:46:00;;;;;;;19.42;2.33;;;;;;;;;;5075582;28;20602;-86
2022/01/21 06:48:27;;;;;;;18.38;2.15;;;;;;;;;;5075733;28;20044;-86
2022/01/21 06:50:53;;;;;;;17.65;2.60;;;;;;;;;;5091768;28;20047;-86
2022/01/21 06:53:19;;;;;;;21.73;2.70;;;;;;;;;;5098554;28;20075;-85
2022/01/21 06:55:46;;;;;;;23.08;2.08;;;;;;;;;;5096037;27;20036;-84
2022/01/21 06:58:12;;;;;;;19.95;2.17;;;;;;;;;;5079582;28;20074;-85
2022/01/21 07:00:38;;;;;;;16.38;1.90;;;;;;;;;;5076057;28;20473;-85
2022/01/21 07:03:04;;;;;;;24.42;2.05;;;;;;;;;;5076601;28;20335;-84
2022/01/21 07:05:30;;;;;;;22.17;2.58;;;;;;;;;;5095164;27;20043;-84
2022/01/21 07:07:57;;;;;;;14.45;2.22;;;;;;;;;;5095924;28;20533;-84
2022/01/21 07:10:24;;;;;;;22.55;2.60;;;;;;;;;;5091853;28;20413;-83
2022/01/21 07:12:51;;;;;;;28.05;3.38;;;;;;;;;;5096618;28;20074;-84
2022/01/21 07:15:19;;;;;;;19.25;3.25;;;;;;;;;;5091967;28;20043;-84
2022/01/21 07:17:46;;;;;;;20.17;2.80;;;;;;;;;;5101473;28;20470;-85
2022/01/21 07:20:15;;;;;;;22.80;2.85;;;;;;;;;;5092084;28;20043;-84
2022/01/21 07:22:41;;;;;;;17.73;2.78;;;;;;;;;;5077200;28;20114;-84
2022/01/21 07:25:07;;;;;;;21.52;2.67;;;;;;;;;;5089393;28;20027;-84
2022/01/21 07:27:34;;;;;;;26.20;2.67;;;;;;;;;;5080781;28;20151;-84
2022/01/21 07:30:00;;;;;;;27.42;3.33;;;;;;;;;;5098968;28;20044;-85
2022/01/21 07:32:26;;;;;;;24.23;3.58;;;;;;;;;;5082592;28;20171;-85
2022/01/21 07:34:52;;;;;;;21.40;2.10;;;;;;;;;;5078721;28;20042;-85
2022/01/21 07:37:19;;;;;;;26.17;3.40;;;;;;;;;;5079740;28;20387;-85
2022/01/21 07:39:45;;;;;;;21.58;2.80;;;;;;;;;;5072676;28;20515;-84
2022/01/21 07:42:11;;;;;;;25.33;3.40;;;;;;;;;;5097648;28;20434;-85
2022/01/21 07:44:37;;;;;;;27.35;3.22;;;;;;;;;;5093148;27;20980;-84
2022/01/21 07:47:04;;;;;;;16.73;2.90;;;;;;;;;;5098891;27;20066;-84
2022/01/21 07:49:31;;;;;;;19.38;2.38;;;;;;;;;;5098012;27;20039;-85
2022/01/21 07:51:57;;;;;;;14.85;2.28;;;;;;;;;;5097021;27;20044;-85
2022/01/21 07:54:23;;;;;;;21.70;3.53;;;;;;;;;;5080560;27;20113;-87
2022/01/21 07:56:49;;;;;;;16.88;2.22;;;;;;;;;;5099672;27;20035;-87
2022/01/21 07:59:16;;;;;;;18.50;2.03;;;;;;;;;;5100728;27;20556;-83
2022/01/21 08:01:43;;;;;;;21.00;2.45;;;;;;;;;;5100564;27;20428;-85
2022/01/21 08:04:10;;;;;;;22.38;2.80;;;;;;;;;;5103217;27;20031;-85
2022/01/21 08:06:36;;;;;;;30.55;2.90;;;;;;;;;;5077332;27;20035;-86
2022/01/21 08:09:03;;;;;;;18.80;2.55;;;;;;;;;;5095665;27;20039;-86
2022/01/21 08:11:30;;;;;;;50.33;3.65;;;;;;;;;;5100891;27;20203;-86
2022/01/21 08:13:56;;;;;;;18.45;2.25;;;;;;;;;;5090894;27;20496;-86
2022/01/21 08:16:22;;;;;;;19.98;3.58;;;;;;;;;;5088691;27;20042;-89
2022/01/21 08:18:49;;;;;;;24.70;2.22;;;;;;;;;;5105439;27;20042;-84
2022/01/21 08:21:18;;;;;;;16.63;2.67;;;;;;;;;;5101850;28;20043;-85
2022/01/21 08:23:47;;;;;;;19.90;2.58;;;;;;;;;;5080759;27;20225;-85
2022/01/21 08:26:13;;;;;;;15.70;2.88;;;;;;;;;;5097698;27;20043;-85
2022/01/21 08:28:39;;;;;;;15.00;1.83;;;;;;;;;;5105482;27;20126;-84
2022/01/21 08:31:06;;;;;;;21.02;2.67;;;;;;;;;;5079633;27;20050;-84
2022/01/21 08:33:32;;;;;;;17.90;2.33;;;;;;;;;;5100049;27;20035;-85
2022/01/21 08:35:58;;;;;;;21.45;2.25;;;;;;;;;;5096814;27;20459;-85
2022/01/21 08:38:24;;;;;;;23.15;3.58;;;;;;;;;;5082213;27;20082;-84
2022/01/21 08:40:50;;;;;;;16.52;2.58;;;;;;;;;;5098257;27;20031;-84
2022/01/21 08:43:18;;;;;;;18.23;2.38;;;;;;;;;;5072712;28;20511;-84
2022/01/21 08:45:44;;;;;;;29.17;3.10;;;;;;;;;;5078022;28;20044;-84
2022/01/21 08:48:10;;;;;;;16.70;2.05;;;;;;;;;;5094620;28;20546;-85
2022/01/21 08:50:37;;;;;;;24.70;2.47;;;;;;;;;;5093358;28;20035;-84
2022/01/21 08:53:36;;;;;;;16.77;2.40;;;;;;;;;;5092327;28;20062;-85
2022/01/21 08:55:55;;;;;;;23.20;2.35;;;;;;;;;;5092819;28;20039;-85
2022/01/21 08:58:21;;;;;;;14.50;2.13;;;;;;;;;;5090037;28;20708;-85
2022/01/21 09:00:47;;;;;;;13.50;1.65;;;;;;;;;;5092420;28;20031;-85
2022/01/21 09:03:13;;;;;;;19.27;3.03;;;;;;;;;;5089091;28;20048;-84
2022/01/21 09:05:40;;;;;;;17.38;2.13;;;;;;;;;;5089871;28;20039;-85
2022/01/21 09:08:06;;;;;;;13.27;2.83;;;;;;;;;;5077018;28;20047;-85
2022/01/21 09:10:32;;;;;;;18.95;2.25;;;;;;;;;;5080289;28;20035;-84
2022/01/21 09:12:58;;;;;;;17.40;3.20;;;;;;;;;;5091384;27;20494;-84
2022/01/21 09:15:25;;;;;;;17.05;3.28;;;;;;;;;;5072122;28;20827;-85
2022/01/21 09:17:52;;;;;;;13.75;2.67;;;;;;;;;;5095849;28;20043;-85
2022/01/21 09:20:18;;;;;;;18.85;2.00;;;;;;;;;;5094190;28;20035;-85
2022/01/21 09:22:45;;;;;;;10.57;1.55;;;;;;;;;;5067315;28;20093;-85
2022/01/21 09:25:11;;;;;;;16.02;2.10;;;;;;;;;;5094106;28;20164;-84
2022/01/21 09:27:37;;;;;;;22.65;4.25;;;;;;;;;;5091152;28;20043;-86
2022/01/21 09:30:05;;;;;;;18.60;2.33;;;;;;;;;;5074277;28;20153;-86
2022/01/21 09:32:32;;;;;;;16.70;2.50;;;;;;;;;;5092728;28;20043;-85
2022/01/21 09:34:59;;;;;;;16.27;2.40;;;;;;;;;;5079475;28;20059;-85
2022/01/21 09:37:25;;;;;;;11.18;1.55;;;;;;;;;;5095168;28;20130;-85
2022/01/21 09:39:51;;;;;;;12.77;2.10;;;;;;;;;;5093892;28;20051;-85
2022/01/21 09:42:17;;;;;;;12.27;2.28;;;;;;;;;;5096749;27;20063;-85
2022/01/21 09:44:46;;;;;;;11.38;1.65;;;;;;;;;;5097570;27;20055;-85
2022/01/21 09:47:16;;;;;;;12.40;2.30;;;;;;;;;;5096544;27;20056;-83
2022/01/21 09:49:43;;;;;;;12.68;1.63;;;;;;;;;;5075697;28;20038;-84
2022/01/21 09:52:13;;;;;;;9.52;1.55;;;7.60;55.90;;;;;;5099218;27;20044;-84
2022/01/21 09:54:45;;;;;;;13.75;1.95;;;;;;;;;;5090463;28;20054;-84
2022/01/21 09:57:16;;;;;;;8.95;1.40;;;;;;;;;;5074914;27;20039;-84
2022/01/21 09:59:42;;;;;;;13.25;1.58;;;;;;;;;;5077946;28;20027;-83
2022/01/21 10:02:09;;;;;;;14.32;2.22;;;;;;;;;;5097179;28;20043;-83
2022/01/21 10:04:42;;;;;;;7.50;1.65;;;;;;;;;;5080572;28;20031;-83
2022/01/21 10:07:10;;;;;;;10.13;2.13;;;;;;;;;;5099636;28;20055;-83
2022/01/21 10:09:38;;;;;;;11.80;2.35;;;;;;;;;;5060956;28;20050;-84
2022/01/21 10:12:04;;;;;;;8.73;1.58;;;;;;;;;;5078357;28;20050;-84
2022/01/21 10:14:31;;;;;;;22.13;2.67;;;;;;;;;;5078769;28;21049;-83
2022/01/21 10:16:58;;;;;;;9.18;1.63;;;;;;;;;;5075163;28;20364;-83
2022/01/21 10:19:27;;;;;;;6.47;1.38;;;8.20;1.00;;;;;;5097765;28;20031;-83
2022/01/21 10:22:05;;;;;;;7.43;1.23;;;;;;;;;;5072751;28;20127;-84
2022/01/21 10:24:32;;;;;;;16.63;1.80;;;;;;;;;;5093285;28;20039;-83
2022/01/21 10:26:58;;;;;;;9.40;2.70;;;;;;;;;;5099602;27;20042;-83
2022/01/21 10:29:41;;;;;;;14.70;2.60;;;;;;;;;;5102200;27;20389;-82
2022/01/21 10:32:08;;;;;;;20.65;2.33;;;;;;;;;;5079347;27;20054;-83
2022/01/21 10:34:42;;;;;;;14.23;2.10;;;;;;;;;;5094913;27;20339;-84
2022/01/21 10:37:36;;;;;;;13.32;1.88;;;7.80;6.30;;;;;;5098659;27;20049;-83
2022/01/21 10:40:07;;;;;;;12.27;2.33;;;;;;;;;;5098350;27;20079;-83
2022/01/21 10:42:33;;;;;;;11.30;1.38;;;;;;;;;;5096114;27;20052;-84
2022/01/21 10:45:00;;;;;;;14.38;2.03;;;;;;;;;;5116754;27;20412;-83
2022/01/21 10:47:28;;;;;;;13.07;2.25;;;;;;;;;;5094800;28;20583;-83
2022/01/21 10:50:03;;;;;;;16.88;1.85;;;;;;;;;;5096764;27;20043;-84
2022/01/21 10:52:33;;;;;;;11.02;1.95;;;;;;;;;;5096820;28;20504;-83
2022/01/21 10:55:00;;;;;;;12.95;1.65;;;;;;;;;;5082606;27;20053;-83
2022/01/21 10:57:29;;;;;;;12.43;1.63;;;;;;;;;;5095419;27;20070;-83
2022/01/21 10:59:55;;;;;;;15.82;1.90;;;;;;;;;;5121205;27;20039;-83
2022/01/21 11:02:29;;;;;;;14.95;2.03;;;;;;;;;;5100144;27;20517;-83
2022/01/21 11:04:58;;;;;;;9.85;2.80;;;;;;;;;;5094730;27;20036;-83
2022/01/21 11:07:42;;;;;;;10.43;1.42;;;;;;;;;;5095797;27;20134;-83
2022/01/21 11:10:09;;;;;;;11.10;1.58;;;;;;;;;;5080395;27;20035;-83
2022/01/21 11:12:35;;;;;;;7.63;1.75;;;;;;;;;;5099834;27;20035;-84
2022/01/21 11:15:03;;;;;;;11.85;2.47;;;;;;;;;;5082801;27;20066;-85
2022/01/21 11:17:30;;;;;;;9.40;1.52;;;;;;;;;;5101644;27;20520;-84
2022/01/21 11:20:07;;;;;;;14.20;2.22;;;;;;;;;;5096112;27;20042;-84
2022/01/21 11:22:51;;;;;;;7.57;1.42;;;;;;;;;;5083825;27;20031;-85
2022/01/21 11:25:17;;;;;;;13.57;1.85;;;;;;;;;;5081894;27;20031;-84
2022/01/21 11:27:55;;;;;;;13.77;1.45;;;;;;;;;;5101342;27;20043;-84
2022/01/21 11:30:22;;;;;;;8.43;1.55;;;;;;;;;;5091671;27;20141;-85
2022/01/21 11:32:48;;;;;;;12.40;2.10;;;;;;;;;;5096464;27;20039;-84
2022/01/21 11:35:14;;;;;;;10.80;1.80;;;;;;;;;;5080270;27;20051;-85
2022/01/21 11:37:40;;;;;;;14.35;2.35;;;;;;;;;;5093411;27;20069;-85
2022/01/21 11:40:07;;;;;;;11.63;1.70;;;;;;;;;;5078940;27;20149;-84
2022/01/21 11:42:37;;;;;;;13.95;1.73;;;;;;;;;;5099551;27;20549;-84
2022/01/21 11:45:18;;;;;;;15.77;2.22;;;;;;;;;;5099532;27;20047;-85
2022/01/21 11:48:07;;;;;;;13.13;2.45;;;;;;;;;;5084851;27;20556;-84
2022/01/21 11:50:33;;;;;;;13.82;2.38;;;;;;;;;;5084951;27;20089;-85
2022/01/21 11:52:59;;;;;;;17.77;2.65;;;;;;;;;;5104833;27;20082;-84
2022/01/21 11:55:33;;;;;;;18.90;3.15;;;;;;;;;;5103893;27;20506;-84
2022/01/21 11:58:19;;;;;;;17.20;2.67;;;;;;;;;;5085020;27;20043;-84
2022/01/21 12:00:47;;;;;;;16.83;2.65;;;;;;;;;;5097848;27;20181;-84
2022/01/21 12:03:14;;;;;;;22.60;2.60;;;;;;;;;;5094097;27;20043;-84
2022/01/21 12:05:40;;;;;;;13.40;2.22;;;;;;;;;;5079164;27;20172;-84
2022/01/21 12:08:07;;;;;;;14.40;2.13;;;;;;;;;;5099121;27;20420;-84
2022/01/21 12:10:33;;;;;;;12.57;1.80;;;;;;;;;;5078247;27;20064;-85
2022/01/21 12:13:03;;;;;;;13.30;2.70;;;;;;;;;;5081816;27;20043;-85
2022/01/21 12:20:55;;;;;;;16.42;2.90;;;;;;;;;;5095309;27;20074;-84
2022/01/21 12:23:22;;;;;;;18.25;2.33;;;;;;;;;;5098500;27;20047;-84
2022/01/21 12:26:07;;;;;;;16.15;2.90;;;;;;;;;;5081692;27;20031;-84
2022/01/21 12:28:33;;;;;;;17.48;2.58;;;;;;;;;;5100597;27;20435;-84
2022/01/21 12:30:59;;;;;;;10.95;2.42;;;;;;;;;;5093160;27;20047;-84
2022/01/21 12:33:49;;;;;;;14.45;2.65;;;;;;;;;;5089382;27;20039;-85
2022/01/21 12:36:15;;;;;;;14.48;1.88;;;;;;;;;;5097087;27;20049;-84
2022/01/21 12:41:17;;;;;;;27.90;3.20;;;;;;;;;;5088694;27;20057;-84
2022/01/21 12:43:48;;;;;;;14.27;2.05;;;;;;;;;;5066265;28;20444;-83
2022/01/21 12:46:23;;;;;;;14.32;1.75;;;;;;;;;;5075996;28;20047;-84
2022/01/21 12:48:50;;;;;;;18.98;2.33;;;;;;;;;;5072687;28;20090;-85
2022/01/21 12:51:34;;;;;;;13.10;2.67;;;7.30;17.10;;;;;;5072960;28;20458;-83
2022/01/21 12:56:50;;;;;;;9.57;2.05;;;;;;;;;;5095917;28;20154;-84
2022/01/21 12:59:17;;;;;;;12.80;2.85;;;;;;;;;;5090052;28;20043;-84
2022/01/21 13:01:44;;;;;;;17.90;2.45;;;;;;;;;;5075401;28;20759;-84
2022/01/21 13:04:20;;;;;;;17.75;2.72;;;7.20;27.90;;;;;;5090060;28;20036;-84
2022/01/21 13:06:49;;;;;;;17.00;3.08;;;;;;;;;;5091492;28;20035;-84
2022/01/21 13:09:21;;;;;;;13.13;2.83;;;;;;;;;;5071897;28;20050;-84
2022/01/21 13:11:55;;;;;;;25.23;3.33;;;;;;;;;;5089258;28;20503;-84
2022/01/21 13:14:34;;;;;;;18.15;2.22;;;;;;;;;;5076392;28;20059;-85
2022/01/21 13:17:01;;;;;;;17.00;2.50;;;;;;;;;;5096808;28;20051;-84
2022/01/21 13:19:31;;;;;;;24.33;2.75;;;;;;;;;;5098281;28;20114;-84
2022/01/21 13:21:57;;;;;;;13.38;2.47;;;;;;;;;;5088499;28;20043;-84
2022/01/21 13:24:29;;;;;;;18.08;2.60;;;;;;;;;;5075204;28;21499;-84
2022/01/21 13:26:55;;;;;;;21.10;2.78;;;;;;;;;;5093861;28;20043;-85
2022/01/21 13:29:32;;;;;;;17.38;3.25;;;;;;;;;;5074909;28;20052;-84
2022/01/21 13:31:59;;;;;;;18.25;2.08;;;;;;;;;;5094546;28;20039;-84
2022/01/21 13:34:35;;;;;;;13.77;2.95;;;7.30;31.00;;;;;;5080473;28;20087;-84
2022/01/21 13:37:03;;;;;;;21.05;2.95;;;;;;;;;;5074598;28;20044;-82
2022/01/21 13:39:34;;;;;;;19.73;2.47;;;;;;;;;;5104762;27;20045;-82
2022/01/21 13:42:00;;;;;;;18.15;2.20;;;;;;;;;;5087227;28;20420;-81
2022/01/21 13:44:33;;;;;;;23.65;3.53;;;;;;;;;;5099520;27;20039;-82
2022/01/21 13:47:00;;;;;;;20.05;3.67;;;;;;;;;;5097725;28;20092;-82
2022/01/21 13:49:27;;;;;;;14.25;2.10;;;;;;;;;;5097476;28;20035;-81
2022/01/21 13:52:01;;;;;;;14.88;2.70;;;;;;;;;;5073685;27;20062;-82
2022/01/21 13:54:32;;;;;;;18.30;2.28;;;;;;;;;;5094180;27;20039;-82
2022/01/21 13:56:58;;;;;;;15.20;2.75;;;;;;;;;;5081542;27;20090;-83
2022/01/21 13:59:24;;;;;;;15.90;2.03;;;;;;;;;;5093998;28;20035;-82
2022/01/21 14:02:00;;;;;;;16.17;2.10;;;;;;;;;;5094873;28;20043;-82
2022/01/21 14:04:27;;;;;;;18.70;2.78;;;;;;;;;;5096565;28;20068;-83
2022/01/21 14:06:53;;;;;;;9.95;2.53;;;;;;;;;;5094592;28;20145;-83
2022/01/21 14:09:23;;;;;;;12.02;1.85;;;;;;;;;;5080237;28;20053;-82
2022/01/21 14:11:50;;;;;;;15.07;2.28;;;;;;;;;;5074751;28;20158;-81
2022/01/21 14:14:17;;;;;;;16.55;2.08;;;;;;;;;;5088085;28;20038;-82
2022/01/21 14:16:46;;;;;;;9.00;1.58;;;;;;;;;;5095161;28;20039;-81
2022/01/21 14:19:18;;;;;;;18.67;1.70;;;;;;;;;;5090009;28;20501;-81
2022/01/21 14:21:47;;;;;;;15.73;2.05;;;;;;;;;;5092846;28;20452;-82
2022/01/21 14:24:14;;;;;;;11.00;2.03;;;;;;;;;;5075506;27;20047;-81
2022/01/21 14:26:52;;;;;;;16.67;2.33;;;6.90;71.90;;;;;;5092442;28;20031;-81
2022/01/21 14:29:28;;;;;;;15.73;2.53;;;;;;;;;;5092785;28;20043;-81
2022/01/21 14:32:01;;;;;;;13.40;2.10;;;;;;;;;;5094748;28;20768;-80
2022/01/21 14:34:27;;;;;;;14.45;1.80;;;;;;;;;;5094252;28;20101;-80
2022/01/21 14:37:12;;;;;;;8.15;1.42;;;;;;;;;;5097896;28;20135;-80
2022/01/21 14:39:42;;;;;;;9.23;0.88;;;;;;;;;;5112366;28;20544;-80
2022/01/21 14:42:09;;;;;;;9.60;0.63;;;;;;;;;;5091129;28;20465;-82
2022/01/21 14:44:37;;;;;;;7.78;1.27;;;;;;;;;;5075489;28;20065;-83
2022/01/21 14:47:06;;;;;;;12.75;1.95;;;;;;;;;;5095536;28;20039;-83
2022/01/21 14:49:32;;;;;;;9.10;1.25;;;;;;;;;;5098950;28;20036;-83
2022/01/21 14:52:33;;;;;;;9.20;1.42;;;;;;;;;;5090479;28;20521;-82
2022/01/21 14:54:48;;;;;;;13.52;2.40;;;;;;;;;;5092012;28;20035;-83
2022/01/21 14:57:14;;;;;;;12.85;1.58;;;;;;;;;;5074344;28;20067;-84
2022/01/21 14:59:54;;;;;;;16.17;2.60;;;;;;;;;;5091413;28;20061;-83
2022/01/21 15:02:31;;;;;;;13.35;2.33;;;;;;;;;;5091363;28;20196;-82
2022/01/21 15:05:01;;;;;;;13.38;3.35;;;;;;;;;;5100698;28;20070;-82
2022/01/21 15:07:29;;;;;;;6.22;1.17;;;;;;;;;;5096238;28;20039;-83
2022/01/21 15:09:56;;;;;;;13.57;2.08;;;7.00;48.60;;;;;;5098746;28;20039;-82
2022/01/21 15:15:35;;;;;;;7.00;1.15;;;;;;;;;;5094089;27;20051;-82
2022/01/21 15:18:03;;;;;;;12.30;3.17;;;6.90;60.50;;;;;;5096217;27;20050;-82
2022/01/21 15:20:37;;;;;;;11.30;1.65;;;;;;;;;;5080905;27;20550;-83
2022/01/21 15:23:05;;;;;;;11.85;1.85;;;;;;;;;;5096776;27;20039;-81
2022/01/21 15:25:31;;;;;;;11.07;1.60;;;;;;;;;;5076733;27;20038;-82
2022/01/21 15:27:58;;;;;;;8.32;1.30;;;;;;;;;;5103370;27;20036;-82
2022/01/21 15:30:25;;;;;;;7.28;1.17;;;;;;;;;;5095517;27;20046;-82
2022/01/21 15:32:51;;;;;;;11.48;1.67;;;;;;;;;;5081070;27;20032;-82
2022/01/21 15:35:17;;;;;;;5.50;1.13;;;;;;;;;;5082835;27;20082;-81